Leao Marinho — CUHG7 — position and weather

sailwx.info

Track history (hours):
 
Tides and Currents Weather Stations Pressure Air Temp Water Temp Dewpoint Dewpoint Depression Visibility Wind Speed Wind Dir Waves Ship Positions

Leao Marinho

Last reported at 2017-Oct-06 09:55 UTC. Time now 2017-Nov-18 14:22 UTC.
Position N 39°12' W 009°27'.
Warning: this ship's position is 43 days out of date.

MMSI: 204283000.

Date/timePositionNaut miles runAvg speedWind from/ knotsBaromVisibWave heightAir tempDewpointWater temp
2017-Oct-06 09:55N 39°12' W 009°27'3 7.9
2017-Oct-06 09:31N 39°09' W 009°28'  
2017-Oct-04 02:08N 38°49' W 009°31'2 0.1
2017-Oct-03 05:08N 38°47' W 009°32'0 0.7
2017-Oct-03 05:00N 38°47' W 009°32'0 0.0
2017-Oct-03 04:30N 38°47' W 009°32'0 0.0
2017-Oct-03 04:00N 38°47' W 009°32'0 0.0
2017-Oct-03 03:30N 38°47' W 009°32'0 0.0
2017-Oct-03 03:00N 38°47' W 009°32'0 0.0
2017-Oct-03 02:30N 38°47' W 009°32'0 0.0
2017-Oct-03 02:00N 38°47' W 009°32'0 0.0
2017-Oct-03 01:30N 38°47' W 009°32'0 0.0
2017-Oct-03 01:00N 38°47' W 009°32'0 0.0
2017-Oct-03 00:30N 38°47' W 009°32'0 0.0
2017-Oct-03 00:00N 38°47' W 009°32'0 0.0
2017-Oct-02 23:30N 38°47' W 009°32'0 0.0
2017-Oct-02 23:00N 38°47' W 009°32'0 0.0
2017-Oct-02 22:30N 38°47' W 009°32'0 0.0
2017-Oct-02 22:00N 38°47' W 009°32'0 0.0
2017-Oct-02 21:30N 38°47' W 009°32'0 0.0
2017-Oct-02 21:00N 38°47' W 009°32'0 0.0
2017-Oct-02 20:30N 38°47' W 009°32'  
2017-Sep-30 02:00N 38°57' W 009°42'2 3.0
2017-Sep-30 01:30N 38°56' W 009°43'1 2.9
2017-Sep-30 01:00N 38°55' W 009°44'2 3.2
2017-Sep-30 00:30N 38°53' W 009°45'2 3.4
2017-Sep-30 00:00N 38°52' W 009°46'2 3.4
2017-Sep-29 23:30N 38°50' W 009°47'1 0.1
2017-Sep-29 11:02N 38°50' W 009°45'0 4.4
2017-Sep-29 11:00N 38°51' W 009°45'4 7.7
2017-Sep-29 10:30N 38°54' W 009°43'5 9.2
2017-Sep-29 10:01N 38°58' W 009°40'5 9.2
2017-Sep-29 09:30N 39°02' W 009°37'5 9.1
2017-Sep-29 09:00N 39°06' W 009°35'  
Track history (hours):
 
Tides and Currents Weather Stations Pressure Air Temp Water Temp Dewpoint Dewpoint Depression Visibility Wind Speed Wind Dir Waves Ship Positions

Leao Marinho

Last reported at 2017-Oct-06 09:55 UTC. Time now 2017-Nov-18 14:22 UTC.
Position N 39°12' W 009°27'.
Warning: this ship's position is 43 days out of date.

MMSI: 204283000.

Date/timePositionNaut miles runAvg speedWind from/ knotsBaromVisibWave heightAir tempDewpointWater temp
2017-Oct-06 09:55N 39°12' W 009°27'3 7.9
2017-Oct-06 09:31N 39°09' W 009°28'  
2017-Oct-04 02:08N 38°49' W 009°31'2 0.1
2017-Oct-03 05:08N 38°47' W 009°32'0 0.7
2017-Oct-03 05:00N 38°47' W 009°32'0 0.0
2017-Oct-03 04:30N 38°47' W 009°32'0 0.0
2017-Oct-03 04:00N 38°47' W 009°32'0 0.0
2017-Oct-03 03:30N 38°47' W 009°32'0 0.0
2017-Oct-03 03:00N 38°47' W 009°32'0 0.0
2017-Oct-03 02:30N 38°47' W 009°32'0 0.0
2017-Oct-03 02:00N 38°47' W 009°32'0 0.0
2017-Oct-03 01:30N 38°47' W 009°32'0 0.0
2017-Oct-03 01:00N 38°47' W 009°32'0 0.0
2017-Oct-03 00:30N 38°47' W 009°32'0 0.0
2017-Oct-03 00:00N 38°47' W 009°32'0 0.0
2017-Oct-02 23:30N 38°47' W 009°32'0 0.0
2017-Oct-02 23:00N 38°47' W 009°32'0 0.0
2017-Oct-02 22:30N 38°47' W 009°32'0 0.0
2017-Oct-02 22:00N 38°47' W 009°32'0 0.0
2017-Oct-02 21:30N 38°47' W 009°32'0 0.0
2017-Oct-02 21:00N 38°47' W 009°32'0 0.0
2017-Oct-02 20:30N 38°47' W 009°32'  
2017-Sep-30 02:00N 38°57' W 009°42'2 3.0
2017-Sep-30 01:30N 38°56' W 009°43'1 2.9
2017-Sep-30 01:00N 38°55' W 009°44'2 3.2
2017-Sep-30 00:30N 38°53' W 009°45'2 3.4
2017-Sep-30 00:00N 38°52' W 009°46'2 3.4
2017-Sep-29 23:30N 38°50' W 009°47'1 0.1
2017-Sep-29 11:02N 38°50' W 009°45'0 4.4
2017-Sep-29 11:00N 38°51' W 009°45'4 7.7
2017-Sep-29 10:30N 38°54' W 009°43'5 9.2
2017-Sep-29 10:01N 38°58' W 009°40'5 9.2
2017-Sep-29 09:30N 39°02' W 009°37'5 9.1
2017-Sep-29 09:00N 39°06' W 009°35'  

Dump ship's entire track history